sensor_id;sensor_type;location;lat;lon;timestamp;P1;durP1;ratioP1;P2;durP2;ratioP2
21030;SDS011;61072;47.808;7.636;2023-04-01T00:02:23;2.58;;;0.40;;
21030;SDS011;61072;47.808;7.636;2023-04-01T00:04:50;1.00;;;0.30;;
21030;SDS011;61072;47.808;7.636;2023-04-01T00:07:16;1.67;;;0.32;;
21030;SDS011;61072;47.808;7.636;2023-04-01T00:09:43;1.40;;;0.40;;
21030;SDS011;61072;47.808;7.636;2023-04-01T00:12:10;1.17;;;0.30;;
21030;SDS011;61072;47.808;7.636;2023-04-01T00:14:37;0.50;;;0.30;;
21030;SDS011;61072;47.808;7.636;2023-04-01T00:17:05;1.80;;;0.60;;
21030;SDS011;61072;47.808;7.636;2023-04-01T00:19:32;1.90;;;0.70;;
21030;SDS011;61072;47.808;7.636;2023-04-01T00:21:59;4.85;;;0.70;;
21030;SDS011;61072;47.808;7.636;2023-04-01T00:24:26;2.50;;;0.60;;
21030;SDS011;61072;47.808;7.636;2023-04-01T00:26:52;2.05;;;0.60;;
21030;SDS011;61072;47.808;7.636;2023-04-01T00:29:19;3.58;;;0.80;;
21030;SDS011;61072;47.808;7.636;2023-04-01T00:31:46;3.35;;;0.70;;
21030;SDS011;61072;47.808;7.636;2023-04-01T00:34:13;4.05;;;0.88;;
21030;SDS011;61072;47.808;7.636;2023-04-01T00:36:39;5.82;;;1.00;;
21030;SDS011;61072;47.808;7.636;2023-04-01T00:39:06;4.00;;;1.20;;
21030;SDS011;61072;47.808;7.636;2023-04-01T00:41:33;7.07;;;1.10;;
21030;SDS011;61072;47.808;7.636;2023-04-01T00:44:17;8.02;;;2.30;;
21030;SDS011;61072;47.808;7.636;2023-04-01T00:46:46;4.22;;;0.98;;
21030;SDS011;61072;47.808;7.636;2023-04-01T00:49:14;8.10;;;1.10;;
21030;SDS011;61072;47.808;7.636;2023-04-01T00:51:43;8.20;;;1.48;;
21030;SDS011;61072;47.808;7.636;2023-04-01T00:54:14;6.63;;;1.30;;
21030;SDS011;61072;47.808;7.636;2023-04-01T00:56:51;7.90;;;1.73;;
21030;SDS011;61072;47.808;7.636;2023-04-01T00:59:23;4.70;;;1.20;;
21030;SDS011;61072;47.808;7.636;2023-04-01T01:01:53;7.35;;;1.20;;
21030;SDS011;61072;47.808;7.636;2023-04-01T01:04:24;11.40;;;1.52;;
21030;SDS011;61072;47.808;7.636;2023-04-01T01:06:59;10.38;;;1.50;;
21030;SDS011;61072;47.808;7.636;2023-04-01T01:12:45;9.30;;;1.48;;
21030;SDS011;61072;47.808;7.636;2023-04-01T01:15:36;8.27;;;1.60;;
21030;SDS011;61072;47.808;7.636;2023-04-01T01:21:06;11.82;;;1.90;;
21030;SDS011;61072;47.808;7.636;2023-04-01T01:23:57;10.13;;;1.52;;
21030;SDS011;61072;47.808;7.636;2023-04-01T01:34:34;11.85;;;2.50;;
21030;SDS011;61072;47.808;7.636;2023-04-01T01:37:05;7.07;;;2.17;;
21030;SDS011;61072;47.808;7.636;2023-04-01T01:39:39;9.88;;;2.05;;
21030;SDS011;61072;47.808;7.636;2023-04-01T01:42:09;8.63;;;2.30;;
21030;SDS011;61072;47.808;7.636;2023-04-01T01:44:39;8.98;;;2.35;;
21030;SDS011;61072;47.808;7.636;2023-04-01T01:47:10;6.40;;;1.88;;
21030;SDS011;61072;47.808;7.636;2023-04-01T01:49:38;13.75;;;2.78;;
21030;SDS011;61072;47.808;7.636;2023-04-01T01:52:07;12.63;;;2.20;;
21030;SDS011;61072;47.808;7.636;2023-04-01T01:54:34;9.15;;;1.40;;
21030;SDS011;61072;47.808;7.636;2023-04-01T01:57:04;12.50;;;1.95;;
21030;SDS011;61072;47.808;7.636;2023-04-01T01:59:34;12.00;;;1.73;;
21030;SDS011;61072;47.808;7.636;2023-04-01T02:02:03;9.55;;;1.40;;
21030;SDS011;61072;47.808;7.636;2023-04-01T02:04:34;8.57;;;1.88;;
21030;SDS011;61072;47.808;7.636;2023-04-01T02:07:09;9.05;;;1.52;;
21030;SDS011;61072;47.808;7.636;2023-04-01T02:09:40;7.78;;;1.45;;
21030;SDS011;61072;47.808;7.636;2023-04-01T02:12:08;8.93;;;1.80;;
21030;SDS011;61072;47.808;7.636;2023-04-01T02:14:39;8.05;;;1.88;;
21030;SDS011;61072;47.808;7.636;2023-04-01T02:17:22;13.25;;;2.05;;
21030;SDS011;61072;47.808;7.636;2023-04-01T02:20:02;8.27;;;1.77;;
21030;SDS011;61072;47.808;7.636;2023-04-01T02:22:36;9.32;;;1.42;;
21030;SDS011;61072;47.808;7.636;2023-04-01T02:25:08;8.38;;;1.73;;
21030;SDS011;61072;47.808;7.636;2023-04-01T02:27:39;14.35;;;2.65;;
21030;SDS011;61072;47.808;7.636;2023-04-01T02:30:08;10.05;;;1.70;;
21030;SDS011;61072;47.808;7.636;2023-04-01T02:32:36;9.35;;;1.80;;
21030;SDS011;61072;47.808;7.636;2023-04-01T02:35:09;12.00;;;2.22;;
21030;SDS011;61072;47.808;7.636;2023-04-01T02:37:37;11.27;;;2.00;;
21030;SDS011;61072;47.808;7.636;2023-04-01T02:40:09;9.25;;;1.55;;
21030;SDS011;61072;47.808;7.636;2023-04-01T02:42:38;12.48;;;1.73;;
21030;SDS011;61072;47.808;7.636;2023-04-01T02:45:05;4.70;;;1.35;;
21030;SDS011;61072;47.808;7.636;2023-04-01T02:47:32;12.02;;;2.17;;
21030;SDS011;61072;47.808;7.636;2023-04-01T02:50:04;4.88;;;1.58;;
21030;SDS011;61072;47.808;7.636;2023-04-01T02:52:32;11.18;;;1.67;;
21030;SDS011;61072;47.808;7.636;2023-04-01T02:54:59;6.68;;;1.75;;
21030;SDS011;61072;47.808;7.636;2023-04-01T02:57:26;7.35;;;1.50;;
21030;SDS011;61072;47.808;7.636;2023-04-01T02:59:53;4.00;;;1.48;;
21030;SDS011;61072;47.808;7.636;2023-04-01T03:02:19;6.28;;;1.60;;
21030;SDS011;61072;47.808;7.636;2023-04-01T03:04:46;7.85;;;1.70;;
21030;SDS011;61072;47.808;7.636;2023-04-01T03:07:13;9.02;;;1.55;;
21030;SDS011;61072;47.808;7.636;2023-04-01T03:09:39;10.10;;;1.48;;
21030;SDS011;61072;47.808;7.636;2023-04-01T03:12:06;6.38;;;1.42;;
21030;SDS011;61072;47.808;7.636;2023-04-01T03:14:33;9.50;;;1.92;;
21030;SDS011;61072;47.808;7.636;2023-04-01T03:17:00;3.97;;;1.08;;
21030;SDS011;61072;47.808;7.636;2023-04-01T03:19:27;6.22;;;1.00;;
21030;SDS011;61072;47.808;7.636;2023-04-01T03:21:53;8.05;;;1.63;;
21030;SDS011;61072;47.808;7.636;2023-04-01T03:24:20;6.45;;;1.75;;
21030;SDS011;61072;47.808;7.636;2023-04-01T03:26:47;4.50;;;1.02;;
21030;SDS011;61072;47.808;7.636;2023-04-01T03:29:14;5.93;;;1.20;;
21030;SDS011;61072;47.808;7.636;2023-04-01T03:31:42;4.65;;;0.90;;
21030;SDS011;61072;47.808;7.636;2023-04-01T03:34:08;4.55;;;1.10;;
21030;SDS011;61072;47.808;7.636;2023-04-01T03:36:35;4.60;;;0.77;;
21030;SDS011;61072;47.808;7.636;2023-04-01T03:39:02;6.40;;;1.17;;
21030;SDS011;61072;47.808;7.636;2023-04-01T03:41:29;5.53;;;1.27;;
21030;SDS011;61072;47.808;7.636;2023-04-01T03:43:56;6.25;;;1.33;;
21030;SDS011;61072;47.808;7.636;2023-04-01T03:46:23;6.75;;;1.15;;
21030;SDS011;61072;47.808;7.636;2023-04-01T03:48:50;6.78;;;1.52;;
21030;SDS011;61072;47.808;7.636;2023-04-01T03:51:17;9.10;;;1.40;;
21030;SDS011;61072;47.808;7.636;2023-04-01T03:53:43;4.53;;;1.17;;
21030;SDS011;61072;47.808;7.636;2023-04-01T03:56:10;8.73;;;1.33;;
21030;SDS011;61072;47.808;7.636;2023-04-01T03:58:37;9.07;;;1.10;;
21030;SDS011;61072;47.808;7.636;2023-04-01T04:01:18;4.95;;;1.40;;
21030;SDS011;61072;47.808;7.636;2023-04-01T04:03:49;5.72;;;1.17;;
21030;SDS011;61072;47.808;7.636;2023-04-01T04:06:17;8.60;;;1.63;;
21030;SDS011;61072;47.808;7.636;2023-04-01T04:08:45;5.20;;;1.10;;
21030;SDS011;61072;47.808;7.636;2023-04-01T04:11:12;8.10;;;1.45;;
21030;SDS011;61072;47.808;7.636;2023-04-01T04:13:38;8.40;;;1.30;;
21030;SDS011;61072;47.808;7.636;2023-04-01T04:16:05;8.05;;;1.52;;
21030;SDS011;61072;47.808;7.636;2023-04-01T04:18:32;6.93;;;1.30;;
21030;SDS011;61072;47.808;7.636;2023-04-01T04:20:59;9.10;;;1.33;;
21030;SDS011;61072;47.808;7.636;2023-04-01T04:23:26;9.25;;;2.03;;
21030;SDS011;61072;47.808;7.636;2023-04-01T04:25:58;3.72;;;1.05;;
21030;SDS011;61072;47.808;7.636;2023-04-01T04:28:27;12.05;;;1.63;;
21030;SDS011;61072;47.808;7.636;2023-04-01T04:30:54;8.88;;;1.50;;
21030;SDS011;61072;47.808;7.636;2023-04-01T04:33:21;9.13;;;1.40;;
21030;SDS011;61072;47.808;7.636;2023-04-01T04:35:49;8.43;;;1.70;;
21030;SDS011;61072;47.808;7.636;2023-04-01T04:38:17;6.07;;;1.02;;
21030;SDS011;61072;47.808;7.636;2023-04-01T04:40:43;8.60;;;1.70;;
21030;SDS011;61072;47.808;7.636;2023-04-01T04:43:11;5.10;;;1.05;;
21030;SDS011;61072;47.808;7.636;2023-04-01T04:45:38;5.68;;;1.45;;
21030;SDS011;61072;47.808;7.636;2023-04-01T04:48:07;5.40;;;1.20;;
21030;SDS011;61072;47.808;7.636;2023-04-01T04:50:34;3.60;;;1.25;;
21030;SDS011;61072;47.808;7.636;2023-04-01T04:53:02;7.93;;;1.15;;
21030;SDS011;61072;47.808;7.636;2023-04-01T04:55:29;4.97;;;1.15;;
21030;SDS011;61072;47.808;7.636;2023-04-01T04:57:56;3.38;;;1.00;;
21030;SDS011;61072;47.808;7.636;2023-04-01T05:00:23;4.10;;;1.00;;
21030;SDS011;61072;47.808;7.636;2023-04-01T05:02:50;4.43;;;0.85;;
21030;SDS011;61072;47.808;7.636;2023-04-01T05:05:16;6.22;;;1.17;;
21030;SDS011;61072;47.808;7.636;2023-04-01T05:07:43;6.32;;;1.05;;
21030;SDS011;61072;47.808;7.636;2023-04-01T05:10:10;5.13;;;1.10;;
21030;SDS011;61072;47.808;7.636;2023-04-01T05:12:37;2.80;;;0.90;;
21030;SDS011;61072;47.808;7.636;2023-04-01T05:15:05;7.65;;;1.15;;
21030;SDS011;61072;47.808;7.636;2023-04-01T05:17:32;5.55;;;1.60;;
21030;SDS011;61072;47.808;7.636;2023-04-01T05:19:59;7.15;;;0.88;;
21030;SDS011;61072;47.808;7.636;2023-04-01T05:22:26;6.43;;;1.00;;
21030;SDS011;61072;47.808;7.636;2023-04-01T05:24:53;5.85;;;0.98;;
21030;SDS011;61072;47.808;7.636;2023-04-01T05:27:20;6.28;;;1.02;;
21030;SDS011;61072;47.808;7.636;2023-04-01T05:29:46;5.93;;;1.42;;
21030;SDS011;61072;47.808;7.636;2023-04-01T05:32:13;6.88;;;1.20;;
21030;SDS011;61072;47.808;7.636;2023-04-01T05:34:41;5.90;;;1.23;;
21030;SDS011;61072;47.808;7.636;2023-04-01T05:37:07;4.15;;;1.13;;
21030;SDS011;61072;47.808;7.636;2023-04-01T05:39:37;6.75;;;1.05;;
21030;SDS011;61072;47.808;7.636;2023-04-01T05:42:07;4.72;;;1.02;;
21030;SDS011;61072;47.808;7.636;2023-04-01T05:44:35;3.67;;;0.90;;
21030;SDS011;61072;47.808;7.636;2023-04-01T05:47:02;3.22;;;1.23;;
21030;SDS011;61072;47.808;7.636;2023-04-01T05:49:29;3.83;;;0.70;;
21030;SDS011;61072;47.808;7.636;2023-04-01T05:51:57;4.95;;;1.17;;
21030;SDS011;61072;47.808;7.636;2023-04-01T05:54:23;3.80;;;0.98;;
21030;SDS011;61072;47.808;7.636;2023-04-01T05:56:50;5.65;;;1.10;;
21030;SDS011;61072;47.808;7.636;2023-04-01T05:59:17;7.88;;;1.33;;
21030;SDS011;61072;47.808;7.636;2023-04-01T06:01:43;5.00;;;1.60;;
21030;SDS011;61072;47.808;7.636;2023-04-01T06:04:12;3.60;;;0.80;;
21030;SDS011;61072;47.808;7.636;2023-04-01T06:06:41;4.10;;;0.90;;
21030;SDS011;61072;47.808;7.636;2023-04-01T06:09:16;5.35;;;1.13;;
21030;SDS011;61072;47.808;7.636;2023-04-01T06:14:27;2.22;;;0.88;;
21030;SDS011;61072;47.808;7.636;2023-04-01T06:40:36;4.85;;;0.70;;
21030;SDS011;61072;47.808;7.636;2023-04-01T06:49:17;4.68;;;0.80;;
21030;SDS011;61072;47.808;7.636;2023-04-01T06:51:52;4.43;;;0.93;;
21030;SDS011;61072;47.808;7.636;2023-04-01T06:54:36;3.55;;;0.98;;
21030;SDS011;61072;47.808;7.636;2023-04-01T06:59:48;4.90;;;1.02;;
21030;SDS011;61072;47.808;7.636;2023-04-01T07:04:50;3.25;;;0.88;;
21030;SDS011;61072;47.808;7.636;2023-04-01T07:10:39;3.17;;;1.05;;
21030;SDS011;61072;47.808;7.636;2023-04-01T07:13:39;9.25;;;1.38;;
21030;SDS011;61072;47.808;7.636;2023-04-01T07:16:19;3.22;;;0.77;;
21030;SDS011;61072;47.808;7.636;2023-04-01T07:21:35;4.28;;;0.85;;
21030;SDS011;61072;47.808;7.636;2023-04-01T07:24:21;5.28;;;1.10;;
21030;SDS011;61072;47.808;7.636;2023-04-01T07:26:57;4.35;;;1.20;;
21030;SDS011;61072;47.808;7.636;2023-04-01T07:29:25;4.32;;;1.25;;
21030;SDS011;61072;47.808;7.636;2023-04-01T07:34:30;8.55;;;1.08;;
21030;SDS011;61072;47.808;7.636;2023-04-01T07:38:02;4.68;;;1.10;;
21030;SDS011;61072;47.808;7.636;2023-04-01T07:43:15;5.55;;;1.30;;
21030;SDS011;61072;47.808;7.636;2023-04-01T07:45:52;3.77;;;1.10;;
21030;SDS011;61072;47.808;7.636;2023-04-01T08:00:33;3.20;;;0.80;;
21030;SDS011;61072;47.808;7.636;2023-04-01T08:05:59;4.45;;;0.80;;
21030;SDS011;61072;47.808;7.636;2023-04-01T08:13:43;1.77;;;0.60;;
21030;SDS011;61072;47.808;7.636;2023-04-01T08:22:14;4.18;;;1.15;;
21030;SDS011;61072;47.808;7.636;2023-04-01T08:24:46;2.35;;;0.70;;
21030;SDS011;61072;47.808;7.636;2023-04-01T08:27:18;2.15;;;0.63;;
21030;SDS011;61072;47.808;7.636;2023-04-01T08:32:37;2.75;;;0.80;;
21030;SDS011;61072;47.808;7.636;2023-04-01T08:35:11;2.17;;;0.80;;
21030;SDS011;61072;47.808;7.636;2023-04-01T08:37:46;2.65;;;0.75;;
21030;SDS011;61072;47.808;7.636;2023-04-01T08:54:34;3.58;;;1.02;;
21030;SDS011;61072;47.808;7.636;2023-04-01T09:08:31;3.50;;;0.93;;
21030;SDS011;61072;47.808;7.636;2023-04-01T09:25:50;2.92;;;0.90;;
21030;SDS011;61072;47.808;7.636;2023-04-01T09:31:45;2.53;;;0.80;;
21030;SDS011;61072;47.808;7.636;2023-04-01T09:42:44;3.13;;;0.93;;
21030;SDS011;61072;47.808;7.636;2023-04-01T09:47:57;2.88;;;0.75;;
21030;SDS011;61072;47.808;7.636;2023-04-01T09:51:18;3.97;;;1.33;;
21030;SDS011;61072;47.808;7.636;2023-04-01T09:56:51;3.22;;;0.80;;
21030;SDS011;61072;47.808;7.636;2023-04-01T10:08:11;2.80;;;0.90;;
21030;SDS011;61072;47.808;7.636;2023-04-01T10:39:38;5.13;;;0.88;;
21030;SDS011;61072;47.808;7.636;2023-04-01T10:57:16;6.10;;;0.80;;
21030;SDS011;61072;47.808;7.636;2023-04-01T11:02:41;2.45;;;0.80;;
21030;SDS011;61072;47.808;7.636;2023-04-01T11:19:33;5.13;;;0.90;;
21030;SDS011;61072;47.808;7.636;2023-04-01T11:33:49;3.75;;;0.68;;
21030;SDS011;61072;47.808;7.636;2023-04-01T11:48:08;4.75;;;1.23;;
21030;SDS011;61072;47.808;7.636;2023-04-01T12:16:45;1.88;;;1.00;;
21030;SDS011;61072;47.808;7.636;2023-04-01T12:19:25;3.17;;;0.70;;
21030;SDS011;61072;47.808;7.636;2023-04-01T12:30:24;4.03;;;0.75;;
21030;SDS011;61072;47.808;7.636;2023-04-01T12:36:06;3.55;;;0.70;;
21030;SDS011;61072;47.808;7.636;2023-04-01T12:44:33;2.00;;;0.70;;
21030;SDS011;61072;47.808;7.636;2023-04-01T12:50:23;1.83;;;0.73;;
21030;SDS011;61072;47.808;7.636;2023-04-01T12:53:13;4.10;;;1.55;;
21030;SDS011;61072;47.808;7.636;2023-04-01T12:55:50;1.85;;;0.90;;
21030;SDS011;61072;47.808;7.636;2023-04-01T13:01:16;1.17;;;0.82;;
21030;SDS011;61072;47.808;7.636;2023-04-01T13:12:10;3.72;;;0.60;;
21030;SDS011;61072;47.808;7.636;2023-04-01T13:15:17;1.20;;;0.60;;
21030;SDS011;61072;47.808;7.636;2023-04-01T13:18:13;2.67;;;0.90;;
21030;SDS011;61072;47.808;7.636;2023-04-01T13:20:45;2.47;;;0.80;;
21030;SDS011;61072;47.808;7.636;2023-04-01T13:23:28;1.75;;;0.60;;
21030;SDS011;61072;47.808;7.636;2023-04-01T13:26:13;3.80;;;0.80;;
21030;SDS011;61072;47.808;7.636;2023-04-01T13:29:13;3.15;;;0.65;;
21030;SDS011;61072;47.808;7.636;2023-04-01T13:42:45;1.23;;;0.50;;
21030;SDS011;61072;47.808;7.636;2023-04-01T13:45:38;1.67;;;0.77;;
21030;SDS011;61072;47.808;7.636;2023-04-01T14:00:19;1.58;;;0.60;;
21030;SDS011;61072;47.808;7.636;2023-04-01T14:10:56;1.40;;;0.40;;
21030;SDS011;61072;47.808;7.636;2023-04-01T14:19:44;3.78;;;1.20;;
21030;SDS011;61072;47.808;7.636;2023-04-01T14:22:38;1.75;;;1.10;;
21030;SDS011;61072;47.808;7.636;2023-04-01T14:30:35;3.83;;;0.67;;
21030;SDS011;61072;47.808;7.636;2023-04-01T14:33:30;2.83;;;0.98;;
21030;SDS011;61072;47.808;7.636;2023-04-01T14:42:07;1.80;;;0.63;;
21030;SDS011;61072;47.808;7.636;2023-04-01T14:45:07;2.60;;;0.63;;
21030;SDS011;61072;47.808;7.636;2023-04-01T14:50:49;1.20;;;0.40;;
21030;SDS011;61072;47.808;7.636;2023-04-01T14:56:04;1.23;;;0.70;;
21030;SDS011;61072;47.808;7.636;2023-04-01T14:58:47;1.58;;;0.80;;
21030;SDS011;61072;47.808;7.636;2023-04-01T15:04:22;2.67;;;0.70;;
21030;SDS011;61072;47.808;7.636;2023-04-01T15:07:35;2.33;;;1.10;;
21030;SDS011;61072;47.808;7.636;2023-04-01T15:10:43;1.35;;;0.50;;
21030;SDS011;61072;47.808;7.636;2023-04-01T15:16:20;0.95;;;0.70;;
21030;SDS011;61072;47.808;7.636;2023-04-01T15:32:16;2.05;;;0.60;;
21030;SDS011;61072;47.808;7.636;2023-04-01T15:40:22;0.60;;;0.50;;
21030;SDS011;61072;47.808;7.636;2023-04-01T15:45:58;0.82;;;0.35;;
21030;SDS011;61072;47.808;7.636;2023-04-01T15:48:56;0.95;;;0.47;;
21030;SDS011;61072;47.808;7.636;2023-04-01T16:05:28;1.13;;;0.60;;
21030;SDS011;61072;47.808;7.636;2023-04-01T16:11:21;3.65;;;0.82;;
21030;SDS011;61072;47.808;7.636;2023-04-01T16:16:58;2.00;;;1.15;;
21030;SDS011;61072;47.808;7.636;2023-04-01T16:22:32;1.63;;;0.90;;
21030;SDS011;61072;47.808;7.636;2023-04-01T16:25:26;1.88;;;0.98;;
21030;SDS011;61072;47.808;7.636;2023-04-01T16:28:16;1.42;;;0.90;;
21030;SDS011;61072;47.808;7.636;2023-04-01T16:30:57;2.03;;;1.08;;
21030;SDS011;61072;47.808;7.636;2023-04-01T16:36:29;3.42;;;1.60;;
21030;SDS011;61072;47.808;7.636;2023-04-01T16:39:10;3.70;;;1.27;;
21030;SDS011;61072;47.808;7.636;2023-04-01T16:41:42;1.98;;;1.10;;
21030;SDS011;61072;47.808;7.636;2023-04-01T16:47:38;1.80;;;0.90;;
21030;SDS011;61072;47.808;7.636;2023-04-01T16:50:23;2.33;;;1.13;;
21030;SDS011;61072;47.808;7.636;2023-04-01T16:58:18;2.83;;;1.42;;
21030;SDS011;61072;47.808;7.636;2023-04-01T17:01:04;5.50;;;2.15;;
21030;SDS011;61072;47.808;7.636;2023-04-01T17:03:45;7.70;;;1.73;;
21030;SDS011;61072;47.808;7.636;2023-04-01T17:06:28;7.28;;;3.33;;
21030;SDS011;61072;47.808;7.636;2023-04-01T17:12:06;10.95;;;5.80;;
21030;SDS011;61072;47.808;7.636;2023-04-01T17:14:42;12.38;;;6.30;;
21030;SDS011;61072;47.808;7.636;2023-04-01T17:17:24;11.98;;;6.68;;
21030;SDS011;61072;47.808;7.636;2023-04-01T17:22:54;6.55;;;3.13;;
21030;SDS011;61072;47.808;7.636;2023-04-01T17:30:39;3.58;;;1.73;;
21030;SDS011;61072;47.808;7.636;2023-04-01T17:33:24;3.10;;;1.30;;
21030;SDS011;61072;47.808;7.636;2023-04-01T17:38:45;2.92;;;1.67;;
21030;SDS011;61072;47.808;7.636;2023-04-01T17:41:32;3.85;;;1.40;;
21030;SDS011;61072;47.808;7.636;2023-04-01T17:50:14;2.33;;;1.25;;
21030;SDS011;61072;47.808;7.636;2023-04-01T17:52:56;2.85;;;1.00;;
21030;SDS011;61072;47.808;7.636;2023-04-01T17:58:17;2.05;;;1.20;;
21030;SDS011;61072;47.808;7.636;2023-04-01T18:00:50;3.75;;;0.90;;
21030;SDS011;61072;47.808;7.636;2023-04-01T18:04:02;4.32;;;1.77;;
21030;SDS011;61072;47.808;7.636;2023-04-01T18:12:40;2.50;;;0.77;;
21030;SDS011;61072;47.808;7.636;2023-04-01T18:15:36;1.48;;;0.70;;
21030;SDS011;61072;47.808;7.636;2023-04-01T18:20:51;2.40;;;0.65;;
21030;SDS011;61072;47.808;7.636;2023-04-01T18:26:28;1.55;;;0.75;;
21030;SDS011;61072;47.808;7.636;2023-04-01T18:28:59;1.95;;;0.80;;
21030;SDS011;61072;47.808;7.636;2023-04-01T18:34:20;0.85;;;0.75;;
21030;SDS011;61072;47.808;7.636;2023-04-01T18:37:18;2.10;;;0.65;;
21030;SDS011;61072;47.808;7.636;2023-04-01T18:40:00;2.97;;;0.82;;
21030;SDS011;61072;47.808;7.636;2023-04-01T18:42:46;2.03;;;0.68;;
21030;SDS011;61072;47.808;7.636;2023-04-01T18:45:43;2.38;;;0.88;;
21030;SDS011;61072;47.808;7.636;2023-04-01T18:48:38;2.42;;;0.65;;
21030;SDS011;61072;47.808;7.636;2023-04-01T18:54:16;1.95;;;0.70;;
21030;SDS011;61072;47.808;7.636;2023-04-01T18:56:49;4.47;;;1.13;;
21030;SDS011;61072;47.808;7.636;2023-04-01T19:13:03;0.73;;;0.65;;
21030;SDS011;61072;47.808;7.636;2023-04-01T19:15:41;1.42;;;0.60;;
21030;SDS011;61072;47.808;7.636;2023-04-01T19:24:06;2.47;;;0.57;;
21030;SDS011;61072;47.808;7.636;2023-04-01T19:29:39;2.95;;;0.60;;
21030;SDS011;61072;47.808;7.636;2023-04-01T19:33:18;0.40;;;0.40;;
21030;SDS011;61072;47.808;7.636;2023-04-01T19:35:39;2.15;;;0.60;;
21030;SDS011;61072;47.808;7.636;2023-04-01T19:41:11;1.48;;;0.88;;
21030;SDS011;61072;47.808;7.636;2023-04-01T19:44:12;1.00;;;0.60;;
21030;SDS011;61072;47.808;7.636;2023-04-01T19:47:13;0.65;;;0.50;;
21030;SDS011;61072;47.808;7.636;2023-04-01T19:55:15;5.88;;;2.22;;
21030;SDS011;61072;47.808;7.636;2023-04-01T19:57:49;2.17;;;1.50;;
21030;SDS011;61072;47.808;7.636;2023-04-01T20:00:34;3.53;;;1.98;;
21030;SDS011;61072;47.808;7.636;2023-04-01T20:03:14;2.20;;;1.80;;
21030;SDS011;61072;47.808;7.636;2023-04-01T20:14:01;7.47;;;4.60;;
21030;SDS011;61072;47.808;7.636;2023-04-01T20:17:02;4.32;;;2.75;;
21030;SDS011;61072;47.808;7.636;2023-04-01T20:19:58;4.90;;;3.60;;
21030;SDS011;61072;47.808;7.636;2023-04-01T20:28:04;5.45;;;4.28;;
21030;SDS011;61072;47.808;7.636;2023-04-01T20:30:55;5.65;;;3.85;;
21030;SDS011;61072;47.808;7.636;2023-04-01T20:37:28;2.03;;;0.90;;
21030;SDS011;61072;47.808;7.636;2023-04-01T20:42:34;1.38;;;0.80;;
21030;SDS011;61072;47.808;7.636;2023-04-01T20:45:08;1.45;;;0.80;;
21030;SDS011;61072;47.808;7.636;2023-04-01T20:47:56;0.57;;;0.50;;
21030;SDS011;61072;47.808;7.636;2023-04-01T20:50:47;4.32;;;0.70;;
21030;SDS011;61072;47.808;7.636;2023-04-01T20:53:29;1.60;;;0.52;;
21030;SDS011;61072;47.808;7.636;2023-04-01T20:58:54;1.90;;;0.75;;
21030;SDS011;61072;47.808;7.636;2023-04-01T21:04:11;1.20;;;0.70;;
21030;SDS011;61072;47.808;7.636;2023-04-01T21:15:28;3.15;;;0.65;;
21030;SDS011;61072;47.808;7.636;2023-04-01T21:18:36;2.47;;;0.68;;
21030;SDS011;61072;47.808;7.636;2023-04-01T21:32:19;1.25;;;0.80;;
21030;SDS011;61072;47.808;7.636;2023-04-01T21:45:24;1.58;;;1.33;;
21030;SDS011;61072;47.808;7.636;2023-04-01T22:13:09;2.53;;;0.52;;
21030;SDS011;61072;47.808;7.636;2023-04-01T22:18:39;0.60;;;0.40;;
21030;SDS011;61072;47.808;7.636;2023-04-01T22:21:44;1.45;;;0.80;;
21030;SDS011;61072;47.808;7.636;2023-04-01T22:24:20;1.77;;;0.70;;
21030;SDS011;61072;47.808;7.636;2023-04-01T22:27:00;1.85;;;1.00;;
21030;SDS011;61072;47.808;7.636;2023-04-01T22:40:57;1.75;;;0.65;;
21030;SDS011;61072;47.808;7.636;2023-04-01T22:43:41;0.90;;;0.40;;
21030;SDS011;61072;47.808;7.636;2023-04-01T22:48:38;2.15;;;0.52;;
21030;SDS011;61072;47.808;7.636;2023-04-01T22:51:11;2.03;;;0.65;;
21030;SDS011;61072;47.808;7.636;2023-04-01T22:56:52;2.10;;;0.57;;
21030;SDS011;61072;47.808;7.636;2023-04-01T22:59:45;1.38;;;0.50;;
21030;SDS011;61072;47.808;7.636;2023-04-01T23:04:57;0.90;;;0.40;;
21030;SDS011;61072;47.808;7.636;2023-04-01T23:13:05;1.25;;;0.60;;
21030;SDS011;61072;47.808;7.636;2023-04-01T23:15:42;1.02;;;0.47;;
21030;SDS011;61072;47.808;7.636;2023-04-01T23:18:15;1.48;;;0.50;;
21030;SDS011;61072;47.808;7.636;2023-04-01T23:21:17;1.23;;;0.50;;
21030;SDS011;61072;47.808;7.636;2023-04-01T23:26:40;1.67;;;0.70;;
21030;SDS011;61072;47.808;7.636;2023-04-01T23:29:16;2.00;;;0.80;;
21030;SDS011;61072;47.808;7.636;2023-04-01T23:31:45;0.95;;;0.60;;
21030;SDS011;61072;47.808;7.636;2023-04-01T23:36:44;6.55;;;0.77;;
21030;SDS011;61072;47.808;7.636;2023-04-01T23:42:03;2.13;;;0.73;;
21030;SDS011;61072;47.808;7.636;2023-04-01T23:44:30;0.82;;;0.57;;
21030;SDS011;61072;47.808;7.636;2023-04-01T23:46:58;4.70;;;1.20;;
21030;SDS011;61072;47.808;7.636;2023-04-01T23:49:34;2.65;;;1.00;;
21030;SDS011;61072;47.808;7.636;2023-04-01T23:54:46;2.90;;;0.98;;
21030;SDS011;61072;47.808;7.636;2023-04-01T23:57:18;1.85;;;0.80;;
